sensor_id;sensor_type;location;lat;lon;timestamp;pressure;altitude;pressure_sealevel;temperature;humidity
26915;BME280;14480;52.608;13.416;2023-09-19T10:08:17;144840.72;;;3.49;100.00
26915;BME280;14480;52.608;13.416;2023-09-19T10:13:24;145152.84;;;4.76;100.00
26915;BME280;14480;52.608;13.416;2023-09-19T10:18:31;145397.72;;;5.76;100.00
26915;BME280;14480;52.608;13.416;2023-09-19T10:23:40;145502.78;;;6.19;96.17
26915;BME280;14480;52.608;13.416;2023-09-19T10:28:49;145413.97;;;5.82;92.15
26915;BME280;14480;52.608;13.416;2023-09-19T10:34:03;145535.31;;;6.32;98.28
26915;BME280;14480;52.608;13.416;2023-09-19T10:39:09;145417.72;;;5.84;91.46
26915;BME280;14480;52.608;13.416;2023-09-19T10:44:21;145328.97;;;5.48;93.26
26915;BME280;14480;52.608;13.416;2023-09-19T10:49:26;145270.25;;;5.24;91.67
26915;BME280;14480;52.608;13.416;2023-09-19T10:54:33;145124.09;;;4.64;90.97
26915;BME280;14480;52.608;13.416;2023-09-19T11:00:02;145099.13;;;4.54;92.39
26915;BME280;14480;52.608;13.416;2023-09-19T11:05:26;144956.78;;;3.96;90.91
26915;BME280;14480;52.608;13.416;2023-09-19T11:10:48;145144.06;;;4.73;88.89
26915;BME280;14480;52.608;13.416;2023-09-19T11:16:03;145161.56;;;4.80;89.03
26915;BME280;14480;52.608;13.416;2023-09-19T11:21:41;145097.88;;;4.54;88.17
26915;BME280;14480;52.608;13.416;2023-09-19T11:26:46;145164.06;;;4.81;87.15
26915;BME280;14480;52.608;13.416;2023-09-19T11:31:51;144895.66;;;3.71;88.20
26915;BME280;14480;52.608;13.416;2023-09-19T11:37:02;144812.03;;;3.37;84.82
26915;BME280;14480;52.608;13.416;2023-09-19T11:47:46;145280.25;;;5.28;75.00
26915;BME280;14480;52.608;13.416;2023-09-19T11:52:52;145161.56;;;4.80;73.37
26915;BME280;14480;52.608;13.416;2023-09-19T11:57:58;145202.75;;;4.96;73.73
26915;BME280;14480;52.608;13.416;2023-09-19T12:03:08;144999.22;;;4.14;73.98
26915;BME280;14480;52.608;13.416;2023-09-19T12:08:14;145254.00;;;5.17;71.87
26915;BME280;14480;52.608;13.416;2023-09-19T12:13:20;145214.03;;;5.01;71.07
26915;BME280;14480;52.608;13.416;2023-09-19T12:18:29;145181.56;;;4.88;71.92
26915;BME280;14480;52.608;13.416;2023-09-19T12:23:33;145156.56;;;4.78;71.62
26915;BME280;14480;52.608;13.416;2023-09-19T12:28:41;145144.06;;;4.73;72.31
26915;BME280;14480;52.608;13.416;2023-09-19T12:33:54;145199.03;;;4.95;72.41
26915;BME280;14480;52.608;13.416;2023-09-19T12:38:58;145257.75;;;5.19;70.81
26915;BME280;14480;52.608;13.416;2023-09-19T12:44:02;145044.19;;;4.32;70.86
26915;BME280;14480;52.608;13.416;2023-09-19T12:49:19;145292.75;;;5.33;70.75
26915;BME280;14480;52.608;13.416;2023-09-19T12:54:23;145342.72;;;5.53;68.78
26915;BME280;14480;52.608;13.416;2023-09-19T12:59:29;145306.47;;;5.39;69.85
26915;BME280;14480;52.608;13.416;2023-09-19T13:04:36;145312.72;;;5.41;70.28
26915;BME280;14480;52.608;13.416;2023-09-19T13:10:02;145184.06;;;4.89;70.06
26915;BME280;14480;52.608;13.416;2023-09-19T13:15:07;145169.03;;;4.83;69.30
26915;BME280;14480;52.608;13.416;2023-09-19T13:20:24;145285.22;;;5.30;70.16
26915;BME280;14480;52.608;13.416;2023-09-19T13:25:29;145202.75;;;4.96;70.46
26915;BME280;14480;52.608;13.416;2023-09-19T13:30:38;145104.13;;;4.56;71.32
26915;BME280;14480;52.608;13.416;2023-09-19T13:35:46;145245.25;;;5.14;71.51
26915;BME280;14480;52.608;13.416;2023-09-19T13:40:53;145067.91;;;4.42;70.92
26915;BME280;14480;52.608;13.416;2023-09-19T13:45:59;145032.91;;;4.27;71.76
26915;BME280;14480;52.608;13.416;2023-09-19T13:51:05;145161.56;;;4.80;72.15
26915;BME280;14480;52.608;13.416;2023-09-19T13:56:09;145112.84;;;4.60;71.58
26915;BME280;14480;52.608;13.416;2023-09-19T14:01:13;144931.81;;;3.86;72.23
26915;BME280;14480;52.608;13.416;2023-09-19T14:06:18;145160.31;;;4.79;71.94
26915;BME280;14480;52.608;13.416;2023-09-19T14:11:22;145025.44;;;4.24;72.86
26915;BME280;14480;52.608;13.416;2023-09-19T14:16:26;145116.56;;;4.61;72.27
26915;BME280;14480;52.608;13.416;2023-09-19T14:21:34;145082.88;;;4.48;73.03
26915;BME280;14480;52.608;13.416;2023-09-19T14:26:39;145012.97;;;4.19;74.02
26915;BME280;14480;52.608;13.416;2023-09-19T14:31:43;145171.53;;;4.84;75.72
26915;BME280;14480;52.608;13.416;2023-09-19T14:36:48;144732.19;;;3.05;72.79
26915;BME280;14480;52.608;13.416;2023-09-19T14:41:54;145107.84;;;4.58;74.07
26915;BME280;14480;52.608;13.416;2023-09-19T14:46:58;144792.06;;;3.29;74.96
26915;BME280;14480;52.608;13.416;2023-09-19T14:52:08;145084.13;;;4.48;75.51
26915;BME280;14480;52.608;13.416;2023-09-19T14:57:12;145036.69;;;4.29;75.29
26915;BME280;14480;52.608;13.416;2023-09-19T15:02:17;145014.22;;;4.20;76.19
26915;BME280;14480;52.608;13.416;2023-09-19T15:07:26;145001.72;;;4.15;75.65
26915;BME280;14480;52.608;13.416;2023-09-19T15:12:38;144904.38;;;3.75;76.69
26915;BME280;14480;52.608;13.416;2023-09-19T15:18:33;144172.66;;;0.76;78.01
26915;BME280;14480;52.608;13.416;2023-09-19T15:23:47;144956.78;;;3.96;77.40
26915;BME280;14480;52.608;13.416;2023-09-19T15:28:53;144440.47;;;1.86;78.78
26915;BME280;14480;52.608;13.416;2023-09-19T15:33:57;144926.84;;;3.84;78.93
26915;BME280;14480;52.608;13.416;2023-09-19T15:39:06;144632.41;;;2.64;78.26
26915;BME280;14480;52.608;13.416;2023-09-19T15:44:14;144881.88;;;3.66;79.74
26915;BME280;14480;52.608;13.416;2023-09-19T15:49:19;144661.06;;;2.76;78.79
26915;BME280;14480;52.608;13.416;2023-09-19T15:54:25;144826.97;;;3.43;79.80
26915;BME280;14480;52.608;13.416;2023-09-19T15:59:29;144787.09;;;3.27;79.99
26915;BME280;14480;52.608;13.416;2023-09-19T16:04:33;144768.34;;;3.19;80.07
26915;BME280;14480;52.608;13.416;2023-09-19T16:09:39;144739.66;;;3.08;80.78
26915;BME280;14480;52.608;13.416;2023-09-19T16:14:43;144712.22;;;2.97;79.86
26915;BME280;14480;52.608;13.416;2023-09-19T16:19:47;144688.50;;;2.87;79.44
26915;BME280;14480;52.608;13.416;2023-09-19T16:24:52;144659.84;;;2.75;80.38
26915;BME280;14480;52.608;13.416;2023-09-19T16:29:56;144390.63;;;1.65;80.77
26915;BME280;14480;52.608;13.416;2023-09-19T16:35:00;144597.50;;;2.50;82.07
26915;BME280;14480;52.608;13.416;2023-09-19T16:40:22;144398.09;;;1.68;82.73
26915;BME280;14480;52.608;13.416;2023-09-19T16:45:27;144513.97;;;2.16;83.74
26915;BME280;14480;52.608;13.416;2023-09-19T16:50:34;144222.47;;;0.97;85.76
26915;BME280;14480;52.608;13.416;2023-09-19T16:55:42;144401.81;;;1.70;87.88
26915;BME280;14480;52.608;13.416;2023-09-19T17:00:45;144335.81;;;1.43;90.42
26915;BME280;14480;52.608;13.416;2023-09-19T17:05:50;144089.25;;;0.42;90.93
26915;BME280;14480;52.608;13.416;2023-09-19T17:11:03;144102.97;;;0.48;93.44
26915;BME280;14480;52.608;13.416;2023-09-19T17:16:09;144198.81;;;0.87;95.57
26915;BME280;14480;52.608;13.416;2023-09-19T17:21:16;144186.38;;;0.82;100.00
26915;BME280;14480;52.608;13.416;2023-09-19T17:26:22;144056.91;;;0.29;98.02
26915;BME280;14480;52.608;13.416;2023-09-19T17:31:27;144094.22;;;0.44;97.75
26915;BME280;14480;52.608;13.416;2023-09-19T17:36:33;143927.50;;;-0.24;99.00
26915;BME280;14480;52.608;13.416;2023-09-19T17:41:39;144018.34;;;0.13;100.00
26915;BME280;14480;52.608;13.416;2023-09-19T17:46:43;143963.59;;;-0.09;100.00
26915;BME280;14480;52.608;13.416;2023-09-19T17:51:49;143927.50;;;-0.24;100.00
26915;BME280;14480;52.608;13.416;2023-09-19T17:56:54;143907.63;;;-0.32;100.00
26915;BME280;14480;52.608;13.416;2023-09-19T18:01:58;143610.50;;;-1.54;100.00
26915;BME280;14480;52.608;13.416;2023-09-19T18:07:03;143811.84;;;-0.71;100.00
26915;BME280;14480;52.608;13.416;2023-09-19T18:12:09;143791.97;;;-0.79;100.00
26915;BME280;14480;52.608;13.416;2023-09-19T18:17:14;143683.84;;;-1.24;100.00
26915;BME280;14480;52.608;13.416;2023-09-19T18:22:18;143850.41;;;-0.55;100.00
26915;BME280;14480;52.608;13.416;2023-09-19T18:27:23;143779.53;;;-0.84;100.00
26915;BME280;14480;52.608;13.416;2023-09-19T18:32:27;143852.91;;;-0.54;100.00
26915;BME280;14480;52.608;13.416;2023-09-19T18:37:31;143912.59;;;-0.30;100.00
26915;BME280;14480;52.608;13.416;2023-09-19T18:42:39;143936.25;;;-0.20;100.00
26915;BME280;14480;52.608;13.416;2023-09-19T18:47:43;143516.09;;;-1.92;100.00
26915;BME280;14480;52.608;13.416;2023-09-19T18:52:48;143973.53;;;-0.05;100.00
26915;BME280;14480;52.608;13.416;2023-09-19T18:57:55;144005.88;;;0.08;100.00
26915;BME280;14480;52.608;13.416;2023-09-19T19:02:59;143903.91;;;-0.34;100.00
26915;BME280;14480;52.608;13.416;2023-09-19T19:08:04;143962.38;;;-0.10;100.00
26915;BME280;14480;52.608;13.416;2023-09-19T19:13:09;144132.84;;;0.60;98.09
26915;BME280;14480;52.608;13.416;2023-09-19T19:18:15;144122.88;;;0.56;98.36
26915;BME280;14480;52.608;13.416;2023-09-19T19:23:19;144139.06;;;0.63;97.32
26915;BME280;14480;52.608;13.416;2023-09-19T19:28:25;143837.97;;;-0.61;97.00
26915;BME280;14480;52.608;13.416;2023-09-19T19:33:29;143856.63;;;-0.53;97.29
26915;BME280;14480;52.608;13.416;2023-09-19T19:38:33;143992.22;;;0.03;97.93
26915;BME280;14480;52.608;13.416;2023-09-19T19:43:38;144073.13;;;0.36;99.34
26915;BME280;14480;52.608;13.416;2023-09-19T19:48:49;144030.78;;;0.18;100.00
26915;BME280;14480;52.608;13.416;2023-09-19T19:53:54;144019.59;;;0.14;100.00
26915;BME280;14480;52.608;13.416;2023-09-19T19:59:02;143984.72;;;-0.01;100.00
26915;BME280;14480;52.608;13.416;2023-09-19T20:04:10;143724.81;;;-1.07;100.00
26915;BME280;14480;52.608;13.416;2023-09-19T20:09:15;143711.19;;;-1.12;100.00
26915;BME280;14480;52.608;13.416;2023-09-19T20:14:22;143722.34;;;-1.08;100.00
26915;BME280;14480;52.608;13.416;2023-09-19T20:19:26;143742.25;;;-1.00;100.00
26915;BME280;14480;52.608;13.416;2023-09-19T20:24:35;143105.25;;;-3.61;100.00
26915;BME280;14480;52.608;13.416;2023-09-19T20:29:41;143876.53;;;-0.45;100.00
26915;BME280;14480;52.608;13.416;2023-09-19T20:34:44;143830.50;;;-0.64;100.00
26915;BME280;14480;52.608;13.416;2023-09-19T20:39:48;143814.31;;;-0.70;100.00
26915;BME280;14480;52.608;13.416;2023-09-19T20:44:56;142989.91;;;-4.08;100.00
26915;BME280;14480;52.608;13.416;2023-09-19T20:50:03;143801.91;;;-0.75;100.00
26915;BME280;14480;52.608;13.416;2023-09-19T20:55:07;143772.06;;;-0.88;100.00
26915;BME280;14480;52.608;13.416;2023-09-19T21:00:15;143760.91;;;-0.92;100.00
26915;BME280;14480;52.608;13.416;2023-09-19T21:05:20;143718.63;;;-1.09;100.00
26915;BME280;14480;52.608;13.416;2023-09-19T21:10:24;143611.72;;;-1.53;100.00
26915;BME280;14480;52.608;13.416;2023-09-19T21:15:29;143798.19;;;-0.77;100.00
